createdAt,value
2018-11-22T00:00:52.599Z,11.70
2018-11-22T00:01:52.590Z,12.40
2018-11-22T00:02:52.595Z,11.50
2018-11-22T00:03:52.577Z,12.00
2018-11-22T00:04:52.571Z,12.10
2018-11-22T00:05:52.546Z,11.70
2018-11-22T00:06:52.537Z,12.40
2018-11-22T00:07:52.524Z,12.50
2018-11-22T00:08:52.519Z,13.20
2018-11-22T00:09:52.526Z,12.90
2018-11-22T00:10:52.493Z,12.60
2018-11-22T00:11:52.492Z,13.20
2018-11-22T00:12:52.476Z,11.70
2018-11-22T00:13:52.463Z,12.90
2018-11-22T00:14:52.465Z,12.00
2018-11-22T00:15:52.444Z,12.50
2018-11-22T00:16:52.427Z,12.90
2018-11-22T00:17:52.417Z,12.50
2018-11-22T00:18:52.411Z,12.70
2018-11-22T00:19:52.410Z,13.00
2018-11-22T00:20:52.389Z,13.10
2018-11-22T00:21:52.374Z,12.90
2018-11-22T00:22:52.368Z,12.70
2018-11-22T00:23:52.358Z,12.60
2018-11-22T00:24:52.362Z,12.30
2018-11-22T00:25:52.336Z,12.80
2018-11-22T00:26:52.327Z,12.70
2018-11-22T00:27:52.321Z,13.20
2018-11-22T00:28:52.303Z,12.60
2018-11-22T00:29:52.303Z,12.30
2018-11-22T00:30:52.282Z,13.40
2018-11-22T00:31:52.268Z,12.50
2018-11-22T00:32:52.272Z,11.90
2018-11-22T00:33:52.247Z,12.80
2018-11-22T00:34:52.254Z,13.20
2018-11-22T00:35:52.226Z,13.00
2018-11-22T00:36:52.214Z,13.10
2018-11-22T00:37:52.206Z,13.10
2018-11-22T00:38:52.198Z,12.00
2018-11-22T00:39:52.212Z,13.20
2018-11-22T00:40:52.172Z,13.50
2018-11-22T00:41:52.164Z,11.70
2018-11-22T00:42:52.151Z,12.10
2018-11-22T00:43:52.170Z,12.40
2018-11-22T00:44:52.150Z,11.70
2018-11-22T00:45:52.129Z,11.90
2018-11-22T00:46:52.126Z,12.50
2018-11-22T00:47:52.102Z,12.10
2018-11-22T00:48:52.089Z,12.50
2018-11-22T00:49:52.080Z,12.90
2018-11-22T00:50:52.085Z,12.20
2018-11-22T00:51:52.057Z,12.90
2018-11-22T00:52:52.051Z,12.70
2018-11-22T00:53:52.046Z,12.50
2018-11-22T00:54:52.065Z,12.30
2018-11-22T00:55:52.016Z,12.50
2018-11-22T00:56:52.035Z,11.70
2018-11-22T00:57:52.008Z,12.60
2018-11-22T00:58:52.005Z,12.30
2018-11-22T00:59:51.980Z,12.20
2018-11-22T01:00:51.964Z,11.40
2018-11-22T01:01:51.954Z,12.10
2018-11-22T01:02:51.955Z,11.20
2018-11-22T01:03:51.930Z,11.80
2018-11-22T01:04:51.943Z,12.10
2018-11-22T01:05:51.916Z,12.30
2018-11-22T01:06:51.898Z,11.80
2018-11-22T01:07:51.887Z,12.50
2018-11-22T01:08:51.876Z,14.80
2018-11-22T01:09:51.867Z,15.30
2018-11-22T01:10:51.873Z,13.60
2018-11-22T01:11:51.862Z,13.10
2018-11-22T01:12:51.833Z,13.00
2018-11-22T01:13:51.826Z,12.60
2018-11-22T01:14:51.814Z,12.70
2018-11-22T01:15:51.819Z,11.30
2018-11-22T01:16:51.793Z,11.70
2018-11-22T01:17:51.785Z,13.40
2018-11-22T01:18:51.775Z,12.30
2018-11-22T01:19:51.762Z,12.70
2018-11-22T01:20:51.776Z,12.50
2018-11-22T01:21:51.741Z,11.00
2018-11-22T01:22:51.728Z,11.50
2018-11-22T01:23:51.719Z,12.50
2018-11-22T01:24:51.707Z,11.50
2018-11-22T01:25:51.713Z,12.00
2018-11-22T01:26:51.687Z,10.80
2018-11-22T01:27:51.675Z,11.80
2018-11-22T01:28:51.666Z,11.70
2018-11-22T01:29:51.655Z,10.90
2018-11-22T01:30:51.663Z,11.30
2018-11-22T01:31:51.635Z,10.80
2018-11-22T01:32:51.630Z,11.10
2018-11-22T01:33:51.615Z,11.30
2018-11-22T01:34:51.608Z,11.80
2018-11-22T01:35:51.607Z,11.70
2018-11-22T01:36:51.582Z,11.40
2018-11-22T01:37:51.569Z,11.70
2018-11-22T01:38:51.561Z,10.80
2018-11-22T01:39:51.550Z,11.10
2018-11-22T01:40:51.557Z,11.10
2018-11-22T01:41:51.531Z,11.90
2018-11-22T01:42:51.526Z,12.80
2018-11-22T01:43:51.507Z,14.80
2018-11-22T01:44:51.494Z,14.60
2018-11-22T01:45:51.498Z,15.40
2018-11-22T01:46:51.474Z,16.40
2018-11-22T01:47:51.470Z,16.50
2018-11-22T01:48:51.453Z,16.40
2018-11-22T01:49:51.443Z,15.90
2018-11-22T01:50:51.449Z,16.50
2018-11-22T01:51:51.427Z,15.90
2018-11-22T01:52:51.409Z,15.90
2018-11-22T01:53:51.405Z,15.40
2018-11-22T01:54:51.394Z,16.50
2018-11-22T01:55:51.392Z,15.40
2018-11-22T01:56:51.417Z,15.80
2018-11-22T01:57:51.358Z,15.80
2018-11-22T01:58:51.350Z,15.80
2018-11-22T01:59:51.335Z,15.60
2018-11-22T02:00:51.343Z,15.10
2018-11-22T02:01:51.316Z,15.10
2018-11-22T02:02:51.304Z,15.20
2018-11-22T02:03:51.294Z,14.80
2018-11-22T02:04:51.286Z,15.60
2018-11-22T02:05:51.289Z,15.00
2018-11-22T02:06:51.266Z,13.90
2018-11-22T02:07:51.254Z,15.60
2018-11-22T02:08:51.241Z,16.00
2018-11-22T02:09:51.228Z,15.70
2018-11-22T02:10:51.231Z,15.10
2018-11-22T02:11:51.211Z,15.30
2018-11-22T02:12:51.204Z,15.60
2018-11-22T02:13:51.194Z,15.00
2018-11-22T02:14:51.179Z,14.40
2018-11-22T02:15:51.201Z,15.00
2018-11-22T02:16:51.156Z,15.00
2018-11-22T02:17:51.145Z,15.60
2018-11-22T02:18:51.160Z,15.50
2018-11-22T02:19:51.130Z,15.40
2018-11-22T02:20:51.131Z,15.40
2018-11-22T02:21:51.108Z,15.40
2018-11-22T02:22:51.094Z,16.30
2018-11-22T02:23:51.089Z,15.80
2018-11-22T02:24:51.073Z,15.90
2018-11-22T02:25:51.074Z,15.90
2018-11-22T02:26:51.052Z,15.90
2018-11-22T02:27:51.060Z,14.90
2018-11-22T02:28:51.030Z,14.90
2018-11-22T02:29:51.018Z,15.60
2018-11-22T02:30:51.020Z,15.60
2018-11-22T02:31:50.999Z,14.50
2018-11-22T02:32:50.985Z,15.90
2018-11-22T02:33:50.976Z,15.20
2018-11-22T02:34:50.972Z,15.20
2018-11-22T02:35:50.976Z,15.70
2018-11-22T02:36:50.946Z,15.30
2018-11-22T02:37:50.938Z,15.50
2018-11-22T02:38:50.921Z,14.70
2018-11-22T02:39:51.119Z,14.20
2018-11-22T02:40:50.926Z,14.80
2018-11-22T02:41:50.891Z,14.20
2018-11-22T02:42:50.880Z,14.40
2018-11-22T02:43:50.869Z,16.70
2018-11-22T02:44:50.860Z,15.40
2018-11-22T02:45:50.868Z,16.10
2018-11-22T02:46:50.840Z,16.10
2018-11-22T02:47:50.840Z,15.50
2018-11-22T02:48:50.853Z,15.70
2018-11-22T02:49:50.818Z,15.60
2018-11-22T02:50:50.796Z,16.50
2018-11-22T02:51:50.798Z,16.00
2018-11-22T02:52:50.777Z,15.80
2018-11-22T02:53:50.766Z,17.40
2018-11-22T02:54:50.753Z,16.80
2018-11-22T02:55:50.743Z,15.80
2018-11-22T02:56:50.787Z,15.40
2018-11-22T02:57:50.722Z,15.30
2018-11-22T02:58:50.720Z,15.70
2018-11-22T02:59:50.699Z,15.70
2018-11-22T03:00:50.716Z,16.40
2018-11-22T03:01:50.771Z,15.20
2018-11-22T03:02:50.666Z,15.40
2018-11-22T03:03:50.656Z,15.90
2018-11-22T03:04:50.650Z,15.50
2018-11-22T03:05:50.635Z,15.60
2018-11-22T03:06:50.641Z,14.90
2018-11-22T03:07:50.613Z,15.50
2018-11-22T03:08:50.602Z,15.20
2018-11-22T03:09:50.620Z,14.80
2018-11-22T03:10:50.585Z,15.00
2018-11-22T03:11:50.623Z,14.50
2018-11-22T03:12:50.573Z,15.40
2018-11-22T03:13:50.559Z,16.10
2018-11-22T03:14:50.547Z,15.20
2018-11-22T03:15:50.536Z,15.20
2018-11-22T03:16:50.544Z,15.50
2018-11-22T03:17:50.506Z,14.80
2018-11-22T03:18:50.510Z,15.20
2018-11-22T03:19:50.489Z,16.00
2018-11-22T03:20:50.480Z,16.40
2018-11-22T03:21:50.592Z,14.70
2018-11-22T03:22:50.454Z,14.70
2018-11-22T03:23:50.449Z,15.60
2018-11-22T03:24:50.436Z,15.50
2018-11-22T03:25:50.426Z,15.70
2018-11-22T03:26:50.439Z,14.40
2018-11-22T03:27:50.411Z,15.60
2018-11-22T03:28:50.406Z,16.20
2018-11-22T03:29:50.387Z,15.00
2018-11-22T03:30:50.375Z,15.80
2018-11-22T03:31:50.771Z,14.90
2018-11-22T03:32:50.357Z,16.30
2018-11-22T03:33:50.346Z,15.50
2018-11-22T03:34:50.341Z,14.50
2018-11-22T03:35:50.319Z,17.10
2018-11-22T03:36:50.323Z,16.20
2018-11-22T03:37:50.312Z,15.80
2018-11-22T03:38:50.288Z,15.60
2018-11-22T03:39:50.276Z,15.40
2018-11-22T03:40:50.263Z,15.40
2018-11-22T03:41:50.268Z,15.50
2018-11-22T03:42:50.445Z,15.00
2018-11-22T03:43:50.236Z,16.10
2018-11-22T03:44:50.233Z,15.40
2018-11-22T03:45:50.213Z,15.70
2018-11-22T03:46:50.214Z,16.40
2018-11-22T03:47:50.188Z,15.50
2018-11-22T03:48:50.198Z,15.00
2018-11-22T03:49:50.542Z,16.10
2018-11-22T03:50:50.159Z,16.40
2018-11-22T03:51:50.163Z,15.90
2018-11-22T03:52:50.139Z,16.40
2018-11-22T03:53:50.127Z,16.40
2018-11-22T03:54:50.116Z,15.80
2018-11-22T03:55:50.105Z,15.70
2018-11-22T03:56:50.118Z,16.00
2018-11-22T03:57:50.089Z,16.20
2018-11-22T03:58:50.084Z,17.60
2018-11-22T03:59:50.064Z,16.30
2018-11-22T04:00:50.050Z,15.80
2018-11-22T04:01:50.059Z,16.50
2018-11-22T04:02:50.029Z,17.60
2018-11-22T04:03:50.020Z,16.30
2018-11-22T04:04:50.008Z,16.10
2018-11-22T04:05:49.999Z,16.00
2018-11-22T04:06:50.041Z,15.70
2018-11-22T04:07:49.986Z,16.20
2018-11-22T04:08:49.974Z,17.00
2018-11-22T04:09:49.960Z,17.10
2018-11-22T04:10:49.950Z,17.50
2018-11-22T04:11:49.952Z,17.10
2018-11-22T04:12:49.922Z,16.40
2018-11-22T04:13:49.913Z,16.10
2018-11-22T04:14:49.908Z,16.40
2018-11-22T04:15:49.896Z,15.50
2018-11-22T04:16:49.894Z,17.20
2018-11-22T04:17:49.870Z,16.20
2018-11-22T04:18:49.859Z,16.80
2018-11-22T04:19:49.848Z,17.50
2018-11-22T04:20:49.893Z,17.50
2018-11-22T04:21:49.843Z,17.60
2018-11-22T04:22:49.816Z,17.50
2018-11-22T04:23:49.805Z,17.30
2018-11-22T04:24:49.796Z,16.60
2018-11-22T04:25:49.789Z,17.50
2018-11-22T04:26:50.266Z,16.70
2018-11-22T04:27:49.774Z,17.30
2018-11-22T04:28:49.759Z,17.20
2018-11-22T04:29:49.744Z,17.50
2018-11-22T04:30:49.731Z,16.50
2018-11-22T04:31:49.765Z,17.10
2018-11-22T04:32:49.710Z,17.50
2018-11-22T04:33:49.700Z,17.50
2018-11-22T04:34:49.699Z,18.00
2018-11-22T04:35:49.680Z,17.90
2018-11-22T04:36:49.764Z,17.60
2018-11-22T04:37:49.675Z,19.10
2018-11-22T04:38:49.649Z,17.80
2018-11-22T04:39:49.636Z,18.50
2018-11-22T04:40:49.632Z,18.30
2018-11-22T04:41:49.637Z,18.60
2018-11-22T04:42:49.608Z,17.70
2018-11-22T04:43:49.601Z,18.20
2018-11-22T04:44:49.589Z,19.10
2018-11-22T04:45:49.579Z,19.20
2018-11-22T04:46:49.564Z,19.00
2018-11-22T04:47:49.566Z,17.40
2018-11-22T04:48:49.542Z,17.70
2018-11-22T04:49:49.531Z,17.80
2018-11-22T04:50:49.518Z,18.70
2018-11-22T04:51:49.513Z,18.00
2018-11-22T04:52:49.521Z,18.40
2018-11-22T04:53:49.491Z,17.20
2018-11-22T04:54:49.481Z,17.80
2018-11-22T04:55:49.468Z,17.10
2018-11-22T04:56:49.457Z,17.80
2018-11-22T04:57:49.764Z,17.70
2018-11-22T04:58:49.434Z,17.50
2018-11-22T04:59:49.436Z,17.70
2018-11-22T05:00:49.424Z,17.40
2018-11-22T05:01:49.406Z,18.20
2018-11-22T05:02:49.416Z,17.70
2018-11-22T05:03:49.381Z,17.70
2018-11-22T05:04:49.371Z,17.00
2018-11-22T05:05:49.370Z,16.80
2018-11-22T05:06:49.352Z,17.10
2018-11-22T05:07:49.352Z,18.10
2018-11-22T05:08:49.327Z,17.10
2018-11-22T05:09:49.316Z,17.50
2018-11-22T05:10:49.307Z,17.10
2018-11-22T05:11:49.306Z,17.70
2018-11-22T05:12:49.766Z,17.20
2018-11-22T05:13:49.273Z,16.80
2018-11-22T05:14:49.271Z,17.10
2018-11-22T05:15:49.257Z,16.90
2018-11-22T05:16:49.245Z,17.60
2018-11-22T05:17:49.268Z,18.90
2018-11-22T05:18:49.221Z,18.00
2018-11-22T05:19:49.213Z,17.50
2018-11-22T05:20:49.201Z,17.30
2018-11-22T05:21:49.196Z,18.50
2018-11-22T05:22:49.193Z,17.20
2018-11-22T05:23:49.182Z,17.90
2018-11-22T05:24:49.156Z,17.00
2018-11-22T05:25:49.146Z,16.60
2018-11-22T05:26:49.142Z,17.20
2018-11-22T05:27:49.260Z,17.80
2018-11-22T05:28:49.116Z,17.60
2018-11-22T05:29:49.108Z,17.70
2018-11-22T05:30:49.107Z,17.70
2018-11-22T05:31:49.084Z,17.70
2018-11-22T05:32:49.106Z,19.10
2018-11-22T05:33:49.066Z,17.20
2018-11-22T05:34:49.052Z,17.70
2018-11-22T05:35:49.044Z,17.00
2018-11-22T05:36:49.031Z,17.00
2018-11-22T05:37:49.033Z,17.80
2018-11-22T05:38:49.012Z,18.40
2018-11-22T05:39:48.996Z,17.80
2018-11-22T05:40:48.990Z,18.60
2018-11-22T05:41:48.984Z,16.90
2018-11-22T05:42:48.979Z,17.70
2018-11-22T05:43:49.021Z,18.40
2018-11-22T05:44:49.006Z,17.60
2018-11-22T05:45:48.951Z,18.30
2018-11-22T05:46:48.948Z,18.70
2018-11-22T05:47:48.970Z,17.60
2018-11-22T05:48:48.951Z,18.70
2018-11-22T05:49:48.953Z,18.70
2018-11-22T05:50:48.972Z,19.10
2018-11-22T05:51:48.923Z,19.30
2018-11-22T05:52:49.771Z,17.50
2018-11-22T05:53:48.882Z,18.30
2018-11-22T05:54:48.910Z,17.10
2018-11-22T05:55:49.630Z,18.30
2018-11-22T05:56:48.893Z,18.30
2018-11-22T05:57:49.334Z,18.30
2018-11-22T05:58:48.820Z,18.50
2018-11-22T05:59:48.809Z,18.00
2018-11-22T06:00:48.790Z,17.90
2018-11-22T06:01:48.787Z,17.50
2018-11-22T06:02:48.905Z,17.30
2018-11-22T06:03:48.753Z,18.20
2018-11-22T06:04:48.763Z,18.40
2018-11-22T06:05:48.762Z,16.70
2018-11-22T06:06:48.711Z,17.30
2018-11-22T06:07:48.699Z,17.20
2018-11-22T06:08:48.709Z,19.20
2018-11-22T06:09:48.678Z,18.20
2018-11-22T06:10:48.672Z,18.60
2018-11-22T06:11:48.665Z,16.90
2018-11-22T06:12:48.711Z,18.10
2018-11-22T06:13:48.638Z,17.90
2018-11-22T06:14:48.650Z,18.70
2018-11-22T06:15:48.615Z,17.80
2018-11-22T06:16:48.608Z,17.90
2018-11-22T06:17:49.234Z,18.70
2018-11-22T06:18:48.589Z,18.60
2018-11-22T06:19:48.575Z,18.00
2018-11-22T06:20:49.235Z,17.40
2018-11-22T06:21:48.553Z,17.20
2018-11-22T06:22:48.556Z,19.00
2018-11-22T06:23:48.604Z,18.30
2018-11-22T06:24:48.590Z,17.70
2018-11-22T06:25:48.517Z,17.80
2018-11-22T06:26:56.632Z,18.40
2018-11-22T06:27:48.544Z,19.20
2018-11-22T06:28:49.296Z,18.20
2018-11-22T06:29:48.506Z,18.00
2018-11-22T06:30:48.464Z,17.10
2018-11-22T06:31:48.465Z,18.30
2018-11-22T06:32:50.279Z,18.80
2018-11-22T06:33:48.501Z,17.60
2018-11-22T06:34:48.466Z,18.20
2018-11-22T06:35:48.409Z,18.30
2018-11-22T06:36:48.405Z,17.60
2018-11-22T06:37:48.382Z,18.90
2018-11-22T06:38:48.370Z,19.00
2018-11-22T06:39:48.367Z,18.40
2018-11-22T06:40:48.371Z,17.70
2018-11-22T06:41:48.338Z,17.10
2018-11-22T06:42:48.337Z,18.50
2018-11-22T06:43:48.317Z,17.80
2018-11-22T06:44:48.312Z,18.20
2018-11-22T06:45:48.308Z,17.40
2018-11-22T06:46:48.307Z,18.30
2018-11-22T06:47:48.274Z,17.80
2018-11-22T06:48:48.274Z,17.90
2018-11-22T06:49:48.260Z,18.40
2018-11-22T06:50:48.244Z,18.20
2018-11-22T06:51:48.240Z,18.00
2018-11-22T06:52:48.238Z,17.30
2018-11-22T06:53:48.334Z,18.20
2018-11-22T06:54:48.201Z,17.90
2018-11-22T06:55:51.600Z,18.00
2018-11-22T06:56:48.187Z,17.70
2018-11-22T06:57:48.176Z,18.10
2018-11-22T06:58:48.178Z,17.50
2018-11-22T06:59:48.147Z,17.80
2018-11-22T07:00:48.138Z,18.20
2018-11-22T07:01:48.130Z,17.40
2018-11-22T07:02:48.116Z,18.50
2018-11-22T07:03:48.129Z,16.30
2018-11-22T07:04:48.101Z,19.30
2018-11-22T07:05:48.091Z,17.70
2018-11-22T07:06:48.073Z,18.00
2018-11-22T07:07:48.067Z,18.20
2018-11-22T07:08:48.070Z,17.90
2018-11-22T07:09:48.047Z,17.70
2018-11-22T07:10:48.036Z,18.40
2018-11-22T07:11:48.031Z,17.00
2018-11-22T07:12:48.012Z,17.20
2018-11-22T07:13:48.017Z,19.00
2018-11-22T07:14:48.054Z,17.80
2018-11-22T07:15:47.977Z,17.90
2018-11-22T07:16:47.974Z,18.60
2018-11-22T07:17:47.956Z,17.30
2018-11-22T07:18:47.960Z,17.10
2018-11-22T07:19:47.936Z,17.00
2018-11-22T07:20:47.923Z,17.60
2018-11-22T07:21:47.912Z,17.30
2018-11-22T07:22:47.911Z,17.70
2018-11-22T07:23:47.916Z,17.30
2018-11-22T07:24:47.882Z,18.40
2018-11-22T07:25:47.872Z,17.30
2018-11-22T07:26:47.870Z,16.70
2018-11-22T07:27:47.863Z,18.40
2018-11-22T07:28:47.839Z,17.10
2018-11-22T07:29:47.853Z,17.70
2018-11-22T07:30:47.827Z,17.40
2018-11-22T07:31:47.812Z,17.40
2018-11-22T07:32:47.799Z,17.80
2018-11-22T07:33:47.788Z,18.00
2018-11-22T07:34:47.779Z,18.20
2018-11-22T07:35:47.891Z,17.10
2018-11-22T07:36:47.794Z,17.20
2018-11-22T07:37:47.776Z,17.50
2018-11-22T07:38:47.738Z,16.50
2018-11-22T07:39:47.762Z,17.60
2018-11-22T07:40:47.716Z,18.50
2018-11-22T07:41:47.717Z,16.40
2018-11-22T07:42:50.633Z,16.50
2018-11-22T07:43:47.682Z,17.10
2018-11-22T07:44:47.674Z,17.60
2018-11-22T07:45:47.660Z,17.90
2018-11-22T07:46:47.649Z,17.20
2018-11-22T07:47:47.656Z,17.80
2018-11-22T07:48:47.639Z,17.70
2018-11-22T07:49:47.626Z,16.00
2018-11-22T07:50:47.606Z,16.70
2018-11-22T07:51:47.596Z,17.70
2018-11-22T07:52:47.589Z,17.10
2018-11-22T07:53:47.595Z,15.90
2018-11-22T07:54:47.577Z,17.30
2018-11-22T07:55:47.557Z,17.60
2018-11-22T07:56:47.547Z,16.50
2018-11-22T07:57:47.532Z,17.00
2018-11-22T07:58:47.527Z,16.80
2018-11-22T07:59:47.531Z,17.10
2018-11-22T08:00:47.511Z,16.30
2018-11-22T08:01:47.490Z,16.70
2018-11-22T08:02:47.487Z,17.00
2018-11-22T08:03:47.472Z,16.90
2018-11-22T08:04:47.460Z,16.70
2018-11-22T08:05:47.464Z,16.30
2018-11-22T08:06:47.446Z,16.90
2018-11-22T08:07:47.438Z,16.40
2018-11-22T08:08:47.420Z,16.20
2018-11-22T08:09:47.412Z,16.90
2018-11-22T08:10:47.397Z,17.10
2018-11-22T08:11:47.407Z,16.30
2018-11-22T08:12:47.399Z,16.60
2018-11-22T08:13:47.366Z,17.70
2018-11-22T08:14:47.355Z,16.20
2018-11-22T08:15:47.351Z,16.40
2018-11-22T08:16:47.333Z,16.10
2018-11-22T08:17:47.338Z,16.90
2018-11-22T08:18:47.329Z,17.40
2018-11-22T08:19:47.298Z,16.20
2018-11-22T08:20:47.290Z,16.50
2018-11-22T08:21:47.295Z,16.40
2018-11-22T08:22:47.473Z,16.50
2018-11-22T08:23:47.280Z,16.00
2018-11-22T08:24:47.247Z,16.50
2018-11-22T08:25:47.240Z,16.40
2018-11-22T08:26:47.225Z,16.40
2018-11-22T08:27:47.228Z,15.90
2018-11-22T08:28:47.286Z,16.10
2018-11-22T08:29:47.195Z,16.70
2018-11-22T08:30:47.185Z,16.40
2018-11-22T08:31:47.186Z,15.50
2018-11-22T08:32:52.581Z,15.20
2018-11-22T08:33:47.152Z,15.50
2018-11-22T08:34:47.163Z,15.70
2018-11-22T08:35:47.133Z,15.50
2018-11-22T08:36:47.120Z,16.00
2018-11-22T08:37:47.111Z,16.20
2018-11-22T08:38:47.099Z,15.70
2018-11-22T08:39:47.104Z,16.00
2018-11-22T08:40:47.112Z,14.90
2018-11-22T08:42:16.780Z,12.30
2018-11-22T08:43:16.822Z,14.60
2018-11-22T08:44:16.776Z,16.10
2018-11-22T08:45:16.746Z,16.40
2018-11-22T08:46:16.738Z,15.80
2018-11-22T08:47:16.727Z,16.10
2018-11-22T08:48:16.716Z,15.70
2018-11-22T08:49:16.723Z,14.80
2018-11-22T08:50:16.702Z,15.50
2018-11-22T08:51:16.682Z,15.40
2018-11-22T08:52:16.671Z,15.20
2018-11-22T08:53:17.067Z,16.00
2018-11-22T08:54:16.671Z,15.30
2018-11-22T08:55:16.641Z,16.00
2018-11-22T08:56:16.628Z,14.90
2018-11-22T08:57:16.618Z,15.40
2018-11-22T08:58:16.631Z,15.70
2018-11-22T08:59:16.612Z,14.40
2018-11-22T09:00:16.590Z,14.70
2018-11-22T09:01:16.574Z,15.70
2018-11-22T09:02:16.563Z,14.80
2018-11-22T09:03:16.555Z,16.00
2018-11-22T09:04:16.565Z,15.60
2018-11-22T09:05:16.533Z,14.60
2018-11-22T09:06:16.522Z,16.00
2018-11-22T09:07:16.511Z,15.30
2018-11-22T09:08:16.498Z,13.90
2018-11-22T09:09:16.501Z,15.90
2018-11-22T09:10:16.490Z,14.60
2018-11-22T09:11:16.475Z,15.10
2018-11-22T09:12:16.458Z,15.00
2018-11-22T09:13:16.447Z,14.00
2018-11-22T09:14:16.454Z,14.40
2018-11-22T09:15:16.427Z,15.00
2018-11-22T09:16:16.415Z,16.10
2018-11-22T09:17:16.418Z,14.90
2018-11-22T09:18:16.393Z,14.50
2018-11-22T09:19:16.402Z,15.20
2018-11-22T09:20:16.371Z,15.30
2018-11-22T09:21:16.360Z,15.20
2018-11-22T09:22:16.350Z,15.20
2018-11-22T09:23:16.344Z,13.50
2018-11-22T09:24:17.480Z,13.70
2018-11-22T09:25:16.321Z,14.20
2018-11-22T09:26:16.331Z,13.80
2018-11-22T09:27:16.296Z,14.30
2018-11-22T09:28:16.290Z,13.50
2018-11-22T09:29:16.271Z,13.80
2018-11-22T09:30:16.606Z,13.80
2018-11-22T09:31:16.253Z,12.90
2018-11-22T09:32:16.244Z,13.70
2018-11-22T09:33:16.229Z,13.70
2018-11-22T09:34:16.254Z,14.60
2018-11-22T09:35:16.284Z,13.90
2018-11-22T09:36:16.198Z,13.80
2018-11-22T09:37:16.191Z,13.20
2018-11-22T09:38:16.177Z,13.70
2018-11-22T09:39:16.172Z,12.90
2018-11-22T09:40:16.173Z,13.40
2018-11-22T09:41:16.144Z,12.90
2018-11-22T09:42:16.204Z,13.70
2018-11-22T09:43:16.124Z,13.40
2018-11-22T09:44:16.124Z,13.20
2018-11-22T09:45:16.597Z,13.10
2018-11-22T09:46:16.092Z,14.00
2018-11-22T09:47:16.297Z,12.70
2018-11-22T09:48:16.068Z,13.10
2018-11-22T09:49:16.059Z,13.30
2018-11-22T09:50:16.058Z,12.50
2018-11-22T09:51:16.063Z,13.30
2018-11-22T09:52:16.028Z,14.00
2018-11-22T09:53:16.028Z,13.50
2018-11-22T09:54:16.015Z,13.10
2018-11-22T09:55:15.996Z,12.80
2018-11-22T09:56:15.983Z,12.50
2018-11-22T09:57:15.998Z,13.00
2018-11-22T09:58:15.967Z,12.90
2018-11-22T09:59:16.018Z,13.10
2018-11-22T10:00:15.974Z,12.60
2018-11-22T10:01:15.928Z,12.90
2018-11-22T10:02:15.920Z,12.20
2018-11-22T10:03:16.003Z,11.60
2018-11-22T10:04:15.896Z,12.30
2018-11-22T10:05:16.352Z,11.90
2018-11-22T10:06:15.888Z,11.50
2018-11-22T10:07:15.869Z,11.90
2018-11-22T10:08:15.862Z,12.90
2018-11-22T10:09:15.868Z,12.40
2018-11-22T10:10:15.851Z,13.00
2018-11-22T10:11:15.825Z,11.60
2018-11-22T10:12:15.820Z,12.00
2018-11-22T10:13:15.811Z,12.50
2018-11-22T10:14:15.789Z,11.40
2018-11-22T10:15:16.095Z,12.40
2018-11-22T10:16:15.772Z,12.60
2018-11-22T10:17:15.758Z,13.20
2018-11-22T10:18:15.760Z,12.10
2018-11-22T10:19:15.742Z,12.60
2018-11-22T10:20:15.738Z,12.80
2018-11-22T10:21:15.714Z,12.60
2018-11-22T10:22:15.743Z,12.80
2018-11-22T10:23:15.693Z,11.80
2018-11-22T10:24:15.773Z,12.50
2018-11-22T10:25:15.698Z,11.90
2018-11-22T10:26:15.663Z,12.00
2018-11-22T10:27:15.660Z,12.50
2018-11-22T10:28:15.644Z,10.50
2018-11-22T10:29:15.636Z,10.60
2018-11-22T10:30:15.670Z,12.20
2018-11-22T10:31:15.613Z,11.50
2018-11-22T10:32:15.595Z,11.10
2018-11-22T10:33:15.592Z,11.00
2018-11-22T10:34:15.575Z,11.20
2018-11-22T10:35:15.677Z,11.00
2018-11-22T10:36:15.553Z,11.90
2018-11-22T10:37:15.546Z,12.50
2018-11-22T10:38:15.653Z,12.10
2018-11-22T10:39:15.520Z,12.20
2018-11-22T10:40:15.532Z,11.90
2018-11-22T10:41:15.501Z,11.90
2018-11-22T10:42:15.490Z,11.30
2018-11-22T10:43:16.068Z,12.00
2018-11-22T10:44:15.472Z,12.40
2018-11-22T10:45:15.476Z,12.50
2018-11-22T10:46:15.456Z,12.30
2018-11-22T10:47:15.439Z,12.00
2018-11-22T10:48:15.427Z,11.10
2018-11-22T10:49:15.415Z,12.30
2018-11-22T10:50:15.416Z,11.90
2018-11-22T10:51:15.644Z,12.40
2018-11-22T10:52:15.385Z,12.00
2018-11-22T10:53:15.369Z,12.30
2018-11-22T10:54:15.369Z,10.90
2018-11-22T10:55:16.491Z,12.10
2018-11-22T10:56:15.337Z,11.70
2018-11-22T10:57:15.329Z,11.00
2018-11-22T10:58:15.321Z,12.10
2018-11-22T10:59:15.304Z,12.50
2018-11-22T11:00:15.315Z,12.70
2018-11-22T11:01:15.287Z,11.80
2018-11-22T11:02:15.336Z,12.50
2018-11-22T11:03:15.261Z,12.80
2018-11-22T11:04:15.253Z,12.00
2018-11-22T11:05:15.515Z,12.20
2018-11-22T11:06:15.229Z,12.80
2018-11-22T11:07:15.220Z,12.00
2018-11-22T11:08:15.219Z,11.60
2018-11-22T11:09:15.197Z,12.30
2018-11-22T11:10:15.188Z,12.70
2018-11-22T11:11:15.196Z,11.40
2018-11-22T11:12:17.068Z,10.60
2018-11-22T11:13:15.161Z,11.30
2018-11-22T11:14:15.147Z,10.70
2018-11-22T11:15:15.153Z,10.60
2018-11-22T11:16:15.138Z,11.70
2018-11-22T11:17:15.110Z,10.00
2018-11-22T11:18:15.141Z,10.30
2018-11-22T11:19:15.090Z,11.00
2018-11-22T11:20:15.079Z,10.30
2018-11-22T11:21:15.088Z,10.60
2018-11-22T11:22:15.061Z,10.20
2018-11-22T11:23:15.048Z,10.80
2018-11-22T11:24:15.051Z,11.30
2018-11-22T11:25:15.027Z,10.90
2018-11-22T11:26:15.033Z,10.50
2018-11-22T11:27:15.021Z,11.00
2018-11-22T11:28:14.998Z,10.50
2018-11-22T11:29:15.001Z,10.40
2018-11-22T11:30:14.972Z,10.70
2018-11-22T11:31:14.965Z,11.60
2018-11-22T11:32:14.979Z,11.70
2018-11-22T11:33:15.068Z,11.30
2018-11-22T11:34:14.928Z,11.30
2018-11-22T11:35:14.931Z,10.50
2018-11-22T11:36:17.862Z,11.60
2018-11-22T11:37:14.898Z,11.90
2018-11-22T11:38:14.888Z,11.20
2018-11-22T11:39:14.891Z,11.40
2018-11-22T11:40:14.870Z,10.90
2018-11-22T11:41:14.871Z,11.60
2018-11-22T11:42:14.846Z,10.90
2018-11-22T11:43:14.849Z,11.60
2018-11-22T11:44:14.827Z,10.40
2018-11-22T11:45:14.813Z,11.00
2018-11-22T11:46:14.827Z,11.00
2018-11-22T11:47:14.791Z,11.00
2018-11-22T11:48:14.790Z,11.60
2018-11-22T11:49:14.771Z,10.90
2018-11-22T11:50:14.762Z,10.10
2018-11-22T11:51:14.762Z,11.40
2018-11-22T11:52:14.762Z,11.80
2018-11-22T11:53:14.740Z,11.70
2018-11-22T11:54:14.720Z,10.90
2018-11-22T11:55:14.713Z,11.00
2018-11-22T11:56:14.705Z,11.70
2018-11-22T11:57:14.720Z,11.80
2018-11-22T11:58:14.694Z,11.90
2018-11-22T11:59:14.667Z,11.40
2018-11-22T12:00:14.653Z,12.00
2018-11-22T12:01:14.647Z,11.60
2018-11-22T12:02:15.371Z,12.30
2018-11-22T12:03:14.623Z,11.50
2018-11-22T12:04:15.103Z,12.70
2018-11-22T12:05:14.602Z,12.60
2018-11-22T12:06:14.595Z,12.30
2018-11-22T12:07:14.588Z,12.80
2018-11-22T12:08:14.572Z,12.40
2018-11-22T12:09:14.558Z,12.00
2018-11-22T12:10:14.563Z,12.60
2018-11-22T12:11:14.556Z,12.40
2018-11-22T12:12:14.527Z,12.40
2018-11-22T12:13:14.516Z,11.90
2018-11-22T12:14:14.508Z,11.80
2018-11-22T12:15:14.496Z,11.60
2018-11-22T12:16:14.500Z,12.30
2018-11-22T12:17:14.475Z,11.90
2018-11-22T12:18:14.474Z,12.10
2018-11-22T12:19:14.460Z,11.90
2018-11-22T12:20:14.442Z,12.30
2018-11-22T12:21:14.445Z,12.10
2018-11-22T12:22:14.509Z,11.70
2018-11-22T12:23:14.410Z,11.80
2018-11-22T12:24:14.403Z,11.70
2018-11-22T12:25:14.399Z,12.40
2018-11-22T12:26:14.403Z,12.60
2018-11-22T12:27:14.371Z,11.50
2018-11-22T12:28:14.363Z,11.90
2018-11-22T12:29:14.360Z,12.30
2018-11-22T12:30:14.343Z,11.90
2018-11-22T12:31:14.355Z,12.60
2018-11-22T12:32:14.321Z,12.30
2018-11-22T12:33:14.308Z,12.00
2018-11-22T12:34:14.301Z,12.60
2018-11-22T12:35:14.285Z,12.40
2018-11-22T12:36:14.422Z,12.60
2018-11-22T12:37:14.281Z,12.80
2018-11-22T12:38:14.251Z,11.70
2018-11-22T12:39:14.246Z,12.40
2018-11-22T12:40:14.234Z,12.60
2018-11-22T12:41:14.223Z,12.60
2018-11-22T12:42:14.229Z,13.40
2018-11-22T12:43:14.244Z,12.60
2018-11-22T12:44:14.201Z,12.50
2018-11-22T12:45:14.178Z,12.70
2018-11-22T12:46:14.168Z,12.70
2018-11-22T12:47:14.158Z,12.40
2018-11-22T12:48:14.162Z,13.50
2018-11-22T12:49:14.194Z,13.00
2018-11-22T12:50:14.126Z,12.20
2018-11-22T12:51:14.121Z,13.00
2018-11-22T12:52:14.120Z,11.80
2018-11-22T12:53:14.093Z,12.30